Terminal Aerodrome Forecast
Issued by NWS

Home | Current Version | Previous Version | Text Only | Print | Product List | Glossary On
Versions: 1 2 3 4 5 6 7 8 9 10 11 12 13
929
FTUS44 KEPZ 281133
TAFDMN
TAF
KDMN 281133Z 2812/2912 27012KT P6SM BKN100
     FM281500 25021G32KT P6SM SCT070 SCT100
      TEMPO 2819/2823 6SM BLDU
     FM290200 29014G24KT P6SM SCT070 SCT100
     FM290600 30012KT P6SM SCT070 BKN100=

USA.gov is the U.S. government's official web portal to all federal, state and local government web resources and services.